Joplin Regional Airport
KJLN : rendu visible

Aérodrome :











RETROUVEZ-NOUS SUR...

 
LOGIN :

S'inscrire | Disclaimer

   EN    FR    IT 

 









Légende :    VFR   VFR Marginal   IFR   IFR Intensif   IFR Très Intensif
Visi : 
Plafond : 
>= 8 km
>= 3000ft
5 à 8 km
1000 à 3000 ft
1500m à 5 km
500 à 1000 ft
800 à 1500m
200 à 500 ft
< 800m
< 200 ft
Symboles :   Orages  Brouillard  Fortes neiges  Fortes précipitations  Vent > 20 kt






- Altitude de l'aérodrome : 981 ft
- Code IATA : JLN


KJLN - Joplin Regional

DERNIER METAR :
  • 191453Z 26005KT 10SM CLR 09/03 A2997 RMK AO2 SLP149 T00890033 53023

METARs EXPIRÉS :
  • 191353Z 23003KT 10SM CLR 04/01 A2994 RMK AO2 SLP141 T00440011
  • 191253Z VRB03KT 10SM CLR 04/01 A2992 RMK AO2 SLP132 T00440011

TAF KJLN
Valide du 19 à 12h jusqu'au 20 à 12h UTC


191120Z 1912/2012 VRB03KT P6SM SKC
FM191900 VRB04KT P6SM SKC
FM200200 14006KT P6SM SKC
FM200800 15012KT P6SM SKC WS020/20040KT



MET'MAP, la Météo Aéronautique d'un coup d'oeil ! - Copyright ORBIFLY Décembre 2007 - Disclaimer

ORBIFLY MET'MAP TEAM :

Programmation & Développement : Alexandra Zaïnal
Conception & Développement : Baudouin d'Aumeries
Co-Programmation & Développement : Marc-Olivier Méhu
Soutien technique & logistique : Manuel Goepfert

Contact : metmap@orbifly.com




SOURCES & CREDITS :

   NOAA       Earth
Advisory